Time;durP1;ratioP1;P1;durP2;ratioP2;P2;SDS_P1;SDS_P2;PMS_P1;PMS_P2;Temp;Humidity;BMP_temperature;BMP_pressure;BME280_temperature;BME280_humidity;BME280_pressure;Samples;Min_cycle;Max_cycle;Signal;HPM_P1;HPM_P2
2021/03/14 00:01:28;;;;;;;2.33;1.00;;;;;;;7.61;54.46;96544.72;8323181;28;20212;-63
2021/03/14 00:05:30;;;;;;;3.07;1.00;;;;;;;7.61;55.04;96547.31;8328781;28;20232;-62
2021/03/14 00:09:33;;;;;;;3.83;1.13;;;;;;;7.58;54.89;96547.50;8328622;28;20212;-62
2021/03/14 00:13:37;;;;;;;2.57;1.00;;;;;;;7.51;55.35;96580.47;8328627;28;20228;-62
2021/03/14 00:17:38;;;;;;;2.33;0.90;;;;;;;7.51;55.66;96585.63;8328527;28;20227;-61
2021/03/14 00:21:40;;;;;;;3.57;1.10;;;;;;;7.37;56.30;96581.22;8328227;28;20247;-63
2021/03/14 00:25:43;;;;;;;1.87;1.10;;;;;;;7.38;56.39;96582.03;8328333;28;20231;-63
2021/03/14 00:29:46;;;;;;;3.17;1.27;;;;;;;7.30;56.69;96581.63;8328505;28;20531;-63
2021/03/14 00:33:48;;;;;;;3.27;1.23;;;;;;;7.38;57.08;96582.88;8327905;28;20204;-63
2021/03/14 00:37:50;;;;;;;4.87;1.40;;;;;;;7.34;57.19;96573.66;8328413;28;20213;-62
2021/03/14 00:41:55;;;;;;;4.80;1.60;;;;;;;7.35;57.35;96582.19;8328268;28;20304;-63
2021/03/14 00:45:57;;;;;;;4.50;1.53;;;;;;;7.52;57.35;96579.56;8331199;28;20239;-62
2021/03/14 00:50:06;;;;;;;5.40;1.67;;;;;;;7.60;56.96;96597.19;8334244;28;20215;-61
2021/03/14 00:54:08;;;;;;;4.43;1.20;;;;;;;7.45;56.90;96601.41;8334278;28;20625;-61
2021/03/14 00:58:10;;;;;;;3.17;1.30;;;;;;;7.58;57.03;96601.59;8334313;28;20208;-62
2021/03/14 01:02:12;;;;;;;6.20;1.60;;;;;;;7.60;57.27;96620.38;8333834;28;20231;-61
2021/03/14 01:06:14;;;;;;;1.43;0.50;;;;;;;6.69;60.12;96631.97;8333706;28;20228;-61
2021/03/14 01:10:17;;;;;;;2.27;0.80;;;;;;;6.44;60.90;96630.59;8333542;28;20235;-61
2021/03/14 01:14:19;;;;;;;2.07;0.80;;;;;;;6.67;60.63;96644.91;8333409;28;20208;-61
2021/03/14 01:18:21;;;;;;;1.47;0.67;;;;;;;6.46;61.28;96659.66;8333107;28;20212;-63
2021/03/14 01:22:23;;;;;;;3.17;0.90;;;;;;;6.74;59.90;96653.97;8333154;28;20253;-62
2021/03/14 01:26:29;;;;;;;3.07;0.93;;;;;;;6.27;61.53;96644.28;8332908;28;20327;-62
2021/03/14 01:30:32;;;;;;;1.90;0.70;;;;;;;6.50;61.06;96642.34;8332610;28;20678;-62
2021/03/14 01:34:34;;;;;;;2.73;0.90;;;;;;;6.48;60.99;96652.69;8332557;28;20235;-62
2021/03/14 01:38:35;;;;;;;2.50;0.83;;;;;;;6.46;60.35;96659.66;8332779;28;20524;-63
2021/03/14 01:42:37;;;;;;;5.30;1.00;;;;;;;6.66;60.01;96640.66;8332107;28;20205;-62
2021/03/14 01:46:41;;;;;;;2.37;1.07;;;;;;;6.63;60.38;96636.50;8331873;28;20259;-62
2021/03/14 01:50:49;;;;;;;3.40;1.00;;;;;;;6.80;59.99;96648.53;8332020;28;20204;-61
2021/03/14 01:54:51;;;;;;;2.87;0.90;;;;;;;6.87;59.81;96643.06;8331966;28;20216;-62
2021/03/14 01:58:53;;;;;;;3.83;1.20;;;;;;;6.71;60.68;96627.56;8330783;28;20262;-61
2021/03/14 02:02:56;;;;;;;2.63;0.90;;;;;;;6.57;60.81;96623.94;8331557;28;20239;-61
2021/03/14 02:06:58;;;;;;;3.87;1.10;;;;;;;6.56;61.00;96618.88;8331101;28;20231;-61
2021/03/14 02:11:00;;;;;;;3.13;1.10;;;;;;;6.73;60.37;96618.84;8331116;28;20232;-61
2021/03/14 02:15:03;;;;;;;2.67;1.00;;;;;;;6.48;61.33;96626.16;8331326;28;20208;-62
2021/03/14 02:19:09;;;;;;;2.80;1.00;;;;;;;6.74;60.64;96625.69;8333021;28;20208;-61
2021/03/14 02:23:21;;;;;;;2.03;0.80;;;;;;;6.71;60.44;96627.56;8333101;28;20199;-61
2021/03/14 02:27:24;;;;;;;2.60;1.00;;;;;;;6.66;61.41;96645.78;8331369;28;20268;-61
2021/03/14 02:31:28;;;;;;;3.03;1.20;;;;;;;6.59;60.80;96644.47;8330505;28;20307;-61
2021/03/14 02:35:30;;;;;;;1.77;1.03;;;;;;;6.38;61.81;96662.59;8330742;28;20279;-61
2021/03/14 02:39:33;;;;;;;3.07;1.10;;;;;;;6.68;60.80;96658.59;8330619;28;20216;-61
2021/03/14 02:43:36;;;;;;;2.80;1.00;;;;;;;6.80;59.95;96651.09;8330021;28;20229;-61
2021/03/14 02:47:40;;;;;;;3.03;1.13;;;;;;;6.89;59.54;96661.81;8329976;28;20215;-62
2021/03/14 02:51:46;;;;;;;1.93;1.03;;;;;;;6.78;59.90;96673.50;8330555;28;20207;-61
2021/03/14 02:55:48;;;;;;;2.20;1.00;;;;;;;6.73;59.92;96678.03;8329805;28;20211;-61
2021/03/14 02:59:53;;;;;;;1.67;0.77;;;;;;;6.69;60.27;96679.09;8330225;28;20209;-61
2021/03/14 03:03:57;;;;;;;1.50;0.60;;;;;;;6.78;59.64;96681.22;8329748;28;20228;-61
2021/03/14 03:08:00;;;;;;;1.10;0.60;;;;;;;6.80;59.67;96687.13;8329939;28;20609;-61
2021/03/14 03:12:02;;;;;;;1.50;0.77;;;;;;;6.79;59.97;96676.91;8329386;28;20228;-61
2021/03/14 03:16:06;;;;;;;2.13;0.77;;;;;;;6.67;59.95;96678.34;8329300;28;20204;-61
2021/03/14 03:20:10;;;;;;;1.17;0.60;;;;;;;6.75;59.92;96701.94;8329206;28;20211;-63
2021/03/14 03:24:12;;;;;;;1.43;0.80;;;;;;;6.83;59.70;96717.00;8328960;28;20652;-61
2021/03/14 03:28:15;;;;;;;0.80;0.60;;;;;;;6.81;59.60;96717.06;8328688;28;20211;-61
2021/03/14 03:32:17;;;;;;;4.30;0.50;;;;;;;6.74;59.49;96736.31;8328766;28;20212;-61
2021/03/14 03:36:20;;;;;;;2.73;0.70;;;;;;;6.88;59.36;96742.53;8328412;28;20720;-61
2021/03/14 03:40:24;;;;;;;1.63;0.83;;;;;;;6.91;59.33;96745.78;8328637;28;20208;-61
2021/03/14 03:44:27;;;;;;;1.90;0.80;;;;;;;6.87;59.55;96746.00;8328567;28;20577;-61
2021/03/14 03:48:34;;;;;;;2.73;0.90;;;;;;;6.68;59.98;96746.88;8328742;28;20547;-62
2021/03/14 03:52:36;;;;;;;2.80;0.70;;;;;;;6.83;60.15;96747.88;8328829;28;20223;-62
2021/03/14 03:56:40;;;;;;;3.47;1.00;;;;;;;6.78;60.25;96755.00;8328661;28;20386;-62
2021/03/14 04:00:42;;;;;;;2.83;1.00;;;;;;;6.85;60.25;96761.50;8328275;28;20235;-62
2021/03/14 04:04:45;;;;;;;2.30;1.00;;;;;;;6.58;60.58;96763.69;8328167;28;20323;-62
2021/03/14 04:08:48;;;;;;;2.17;0.90;;;;;;;6.80;60.45;96758.34;8328550;28;20204;-62
2021/03/14 04:12:51;;;;;;;2.80;1.20;;;;;;;6.75;60.63;96774.00;8328177;28;20224;-63
2021/03/14 04:16:54;;;;;;;2.17;0.90;;;;;;;6.84;60.61;96773.56;8328022;28;20208;-62
2021/03/14 04:20:57;;;;;;;3.87;1.00;;;;;;;6.88;59.91;96781.13;8331454;28;20311;-62
2021/03/14 04:24:59;;;;;;;3.20;1.10;;;;;;;6.91;60.02;96788.69;8334609;28;20584;-62
2021/03/14 04:29:02;;;;;;;3.27;1.10;;;;;;;6.97;60.27;96806.44;8334836;28;20212;-61
2021/03/14 04:33:05;;;;;;;2.03;1.30;;;;;;;6.95;60.35;96815.94;8334985;28;20550;-61
2021/03/14 04:37:08;;;;;;;2.53;1.13;;;;;;;7.00;60.35;96816.56;8335312;28;20648;-61
2021/03/14 04:41:11;;;;;;;2.30;1.30;;;;;;;6.91;61.34;96820.44;8334855;28;20340;-61
2021/03/14 04:45:14;;;;;;;4.17;1.77;;;;;;;7.02;60.63;96825.03;8334191;28;20346;-61
2021/03/14 04:49:17;;;;;;;6.00;1.73;;;;;;;6.91;61.13;96837.59;8334485;28;20298;-61
2021/03/14 04:53:21;;;;;;;5.10;1.93;;;;;;;6.89;61.72;96842.81;8334698;28;20243;-61
2021/03/14 04:57:23;;;;;;;4.50;1.77;;;;;;;6.98;61.59;96847.53;8334060;28;20216;-61
2021/03/14 05:01:25;;;;;;;4.37;1.70;;;;;;;6.92;61.46;96854.72;8333876;28;20204;-62
2021/03/14 05:05:28;;;;;;;3.70;1.50;;;;;;;6.85;61.98;96851.59;8332820;28;20271;-61
2021/03/14 05:09:31;;;;;;;5.60;1.93;;;;;;;6.96;61.51;96851.91;8331806;28;20208;-61
2021/03/14 05:13:33;;;;;;;4.77;1.77;;;;;;;6.82;60.60;96862.88;8332043;28;20706;-61
2021/03/14 05:17:35;;;;;;;6.80;1.83;;;;;;;6.80;60.95;96876.72;8331842;28;20215;-61
2021/03/14 05:21:37;;;;;;;5.00;1.80;;;;;;;6.81;61.14;96880.94;8335048;28;20201;-61
2021/03/14 05:25:41;;;;;;;5.40;1.37;;;;;;;6.90;61.23;96887.41;8334186;28;20327;-61
2021/03/14 05:29:45;;;;;;;3.23;1.47;;;;;;;7.04;61.24;96897.88;8331907;28;20212;-61
2021/03/14 05:33:48;;;;;;;3.97;1.33;;;;;;;6.89;60.75;96914.03;8334652;28;20204;-61
2021/03/14 05:37:50;;;;;;;5.23;1.33;;;;;;;6.92;60.43;96926.78;8333116;28;20219;-61
2021/03/14 05:41:53;;;;;;;2.13;0.97;;;;;;;6.87;60.92;96932.13;8333847;28;20213;-61
2021/03/14 05:45:55;;;;;;;3.23;0.97;;;;;;;6.96;60.26;96948.91;8333473;28;20640;-61
2021/03/14 05:49:57;;;;;;;4.00;1.87;;;;;;;6.87;60.08;96951.88;8334325;28;20636;-61
2021/03/14 05:54:00;;;;;;;5.93;3.47;;;;;;;6.92;60.05;96952.53;8333076;28;20208;-61
2021/03/14 05:58:03;;;;;;;5.00;1.47;;;;;;;6.75;60.11;96966.16;8333966;28;20212;-61
2021/03/14 06:02:05;;;;;;;2.87;1.30;;;;;;;6.80;60.65;96966.78;8331946;28;20201;-61
2021/03/14 06:06:08;;;;;;;2.23;1.00;;;;;;;6.97;60.11;96973.75;8332435;28;20236;-61
2021/03/14 06:10:10;;;;;;;2.20;1.13;;;;;;;6.91;60.24;96982.56;8332500;28;20232;-62
2021/03/14 06:14:13;;;;;;;2.27;1.20;;;;;;;6.95;60.21;96993.53;8332300;28;20208;-61
2021/03/14 06:18:15;;;;;;;2.63;1.30;;;;;;;6.84;60.21;96996.63;8331571;28;20640;-61
2021/03/14 06:22:19;;;;;;;3.50;1.33;;;;;;;6.90;60.14;96992.94;8332653;28;20744;-61
2021/03/14 06:26:20;;;;;;;3.13;1.40;;;;;;;6.81;60.56;97005.28;8333747;28;20236;-61
2021/03/14 06:30:26;;;;;;;4.83;1.70;;;;;;;6.92;60.01;97011.72;8331876;28;20205;-61
2021/03/14 06:34:33;;;;;;;2.47;1.30;;;;;;;6.75;61.05;97021.00;8332804;28;20301;-62
2021/03/14 06:38:35;;;;;;;2.80;1.50;;;;;;;6.69;61.28;97025.59;8333049;28;20633;-61
2021/03/14 06:42:38;;;;;;;4.77;2.10;;;;;;;6.91;60.67;97040.91;8332731;28;20640;-60
2021/03/14 06:46:41;;;;;;;4.10;1.57;;;;;;;6.85;60.82;97053.19;8330404;28;20224;-61
2021/03/14 06:50:43;;;;;;;5.17;1.93;;;;;;;7.08;60.03;97064.16;8333281;28;20215;-61
2021/03/14 06:54:48;;;;;;;5.30;2.07;;;;;;;7.11;60.12;97076.91;8331589;28;20237;-61
2021/03/14 06:58:50;;;;;;;2.50;1.70;;;;;;;7.17;59.74;97084.38;8330922;28;20288;-61
2021/03/14 07:02:56;;;;;;;5.77;2.93;;;;;;;7.08;59.91;97094.25;8331235;28;20215;-61
2021/03/14 07:06:58;;;;;;;4.90;2.57;;;;;;;7.13;59.76;97097.47;8331807;28;20652;-61
2021/03/14 07:11:00;;;;;;;5.77;2.20;;;;;;;7.07;59.65;97095.97;8331870;28;20228;-61
2021/03/14 07:15:12;;;;;;;4.53;2.70;;;;;;;7.19;59.79;97105.72;8330940;28;20215;-62
2021/03/14 07:19:17;;;;;;;5.37;4.10;;;;;;;7.30;59.71;97102.69;8331974;28;20239;-61
2021/03/14 07:23:32;;;;;;;8.47;4.50;;;;;;;7.45;59.04;97129.50;8331451;28;20266;-61
2021/03/14 07:27:34;;;;;;;6.60;3.60;;;;;;;7.19;59.06;97138.38;8331514;28;20217;-61
2021/03/14 07:31:42;;;;;;;10.70;6.63;;;;;;;6.99;60.88;97134.09;8329958;28;20204;-62
2021/03/14 07:35:45;;;;;;;11.23;8.03;;;;;;;6.95;61.45;97140.25;8329855;28;20640;-61
2021/03/14 07:39:47;;;;;;;6.37;4.23;;;;;;;7.01;61.33;97151.16;8329621;28;20232;-61
2021/03/14 07:43:55;;;;;;;9.27;5.07;;;;;;;7.31;60.80;97155.03;8335415;28;20561;-61
2021/03/14 07:47:57;;;;;;;7.37;4.37;;;;;;;7.22;60.66;97177.72;8352818;28;20714;-62
2021/03/14 07:52:06;;;;;;;5.67;3.33;;;;;;;7.17;60.62;97176.22;8329994;28;20215;-61
2021/03/14 07:56:11;;;;;;;6.63;3.70;;;;;;;7.19;60.78;97189.88;8330236;28;20586;-61
2021/03/14 08:00:27;;;;;;;8.33;5.13;;;;;;;7.55;59.57;97191.75;8333852;28;20298;-61
2021/03/14 08:04:31;;;;;;;3.40;2.10;;;;;;;7.59;59.83;97191.53;8296723;28;20277;-61
2021/03/14 08:08:47;;;;;;;2.67;1.77;;;;;;;7.69;58.20;97209.16;8327241;28;20219;-61
2021/03/14 08:12:49;;;;;;;3.67;1.97;;;;;;;7.59;59.65;97219.88;8361834;28;20243;-61
2021/03/14 08:17:14;;;;;;;4.10;3.00;;;;;;;7.60;58.62;97218.16;8362899;28;20211;-61
2021/03/14 08:21:36;;;;;;;3.87;2.50;;;;;;;7.54;58.31;97218.41;8362246;28;20237;-61
2021/03/14 08:25:48;;;;;;;3.60;1.30;;;;;;;7.34;59.04;97230.44;8362899;28;20263;-61
2021/03/14 08:29:52;;;;;;;2.80;1.73;;;;;;;7.37;58.92;97242.34;8363201;28;20204;-61
2021/03/14 08:33:55;;;;;;;4.70;2.90;;;;;;;7.44;58.92;97242.03;8363039;28;20222;-63
2021/03/14 08:38:24;;;;;;;1.97;1.27;;;;;;;7.29;58.36;97241.81;8363259;28;20655;-61
2021/03/14 08:42:51;;;;;;;4.77;1.33;;;;;;;7.38;58.64;97251.75;8363893;28;20575;-61
2021/03/14 08:47:03;;;;;;;4.43;1.37;;;;;;;7.46;58.05;97257.38;8363148;28;20219;-61
2021/03/14 08:51:06;;;;;;;4.30;1.40;;;;;;;7.45;58.20;97273.75;8363461;28;20192;-61
2021/03/14 08:55:09;;;;;;;2.80;1.40;;;;;;;7.40;58.57;97276.53;8361944;28;20218;-61
2021/03/14 08:59:13;;;;;;;2.77;1.60;;;;;;;7.14;58.14;97282.78;8362542;28;20204;-61
2021/03/14 09:03:15;;;;;;;3.60;1.60;;;;;;;7.09;58.80;97287.28;8361622;28;20214;-61
2021/03/14 09:07:18;;;;;;;5.27;1.73;;;;;;;7.05;58.52;97283.16;8330974;28;20671;-61
2021/03/14 09:11:38;;;;;;;5.67;2.07;;;;;;;7.85;57.53;97282.34;8353623;28;20689;-61
2021/03/14 09:15:48;;;;;;;3.50;1.70;;;;;;;7.93;56.11;97295.72;8368886;28;20530;-61
2021/03/14 09:19:51;;;;;;;3.57;1.93;;;;;;;8.15;55.04;97292.19;8340480;28;20209;-61
2021/03/14 09:23:56;;;;;;;3.63;2.00;;;;;;;7.92;55.89;97288.03;8334765;28;20600;-61
2021/03/14 09:27:59;;;;;;;6.33;2.27;;;;;;;7.73;56.28;97312.06;8335147;28;20228;-61
2021/03/14 09:32:03;;;;;;;6.03;2.10;;;;;;;7.73;55.16;97304.34;8334727;28;20204;-61
2021/03/14 09:36:06;;;;;;;5.67;2.23;;;;;;;7.60;55.93;97314.34;8335244;28;20286;-61
2021/03/14 09:40:10;;;;;;;4.73;1.80;;;;;;;7.64;56.18;97327.94;8335851;28;20555;-61
2021/03/14 09:44:16;;;;;;;5.07;2.20;;;;;;;7.85;55.63;97333.06;8334653;28;20608;-61
2021/03/14 09:48:19;;;;;;;5.03;2.43;;;;;;;7.68;55.38;97331.22;8335194;28;20193;-61
2021/03/14 09:52:26;;;;;;;5.67;2.00;;;;;;;7.94;54.21;97332.66;8331613;28;20213;-61
2021/03/14 09:56:40;;;;;;;5.80;2.30;;;;;;;8.58;53.48;97332.34;8333896;28;20656;-60
2021/03/14 10:00:43;;;;;;;4.53;2.20;;;;;;;8.53;53.43;97333.47;8333733;28;20208;-61
2021/03/14 10:04:46;;;;;;;5.77;2.37;;;;;;;8.34;53.94;97330.88;8333718;28;20239;-61
2021/03/14 10:08:48;;;;;;;4.30;2.27;;;;;;;8.33;53.00;97334.38;8334977;28;20200;-61
2021/03/14 10:12:50;;;;;;;4.63;2.53;;;;;;;8.20;53.36;97337.47;8333363;28;20228;-62
2021/03/14 10:16:55;;;;;;;4.37;2.10;;;;;;;7.86;53.35;97332.16;8332702;28;20254;-61
2021/03/14 10:21:17;;;;;;;4.57;2.97;;;;;;;8.56;52.36;97334.16;8334504;28;20652;-62
2021/03/14 10:25:26;;;;;;;4.90;2.10;;;;;;;9.24;49.75;97332.72;8334010;28;20228;-61
2021/03/14 10:29:29;;;;;;;7.43;3.57;;;;;;;9.53;48.95;97339.84;8333996;28;20236;-62
2021/03/14 10:33:32;;;;;;;8.40;3.10;;;;;;;8.87;48.83;97335.34;8331861;28;20628;-62
2021/03/14 10:37:36;;;;;;;5.87;2.27;;;;;;;8.93;50.78;97332.47;8333065;28;20235;-64
2021/03/14 10:41:42;;;;;;;5.63;1.80;;;;;;;9.04;50.41;97334.50;8333178;28;20579;-62
2021/03/14 10:45:46;;;;;;;12.47;3.50;;;;;;;9.09;51.46;97331.72;8331988;28;20239;-62
2021/03/14 10:49:50;;;;;;;17.80;2.70;;;;;;;8.80;49.05;97327.03;8331185;28;20205;-61
2021/03/14 10:54:03;;;;;;;5.47;2.97;;;;;;;8.77;48.52;97332.31;8331908;28;20212;-61
2021/03/14 10:58:10;;;;;;;10.93;3.17;;;;;;;8.48;49.01;97333.69;8331245;28;20211;-62
2021/03/14 11:02:14;;;;;;;3.87;2.17;;;;;;;8.36;50.19;97332.50;8330235;28;20208;-61
2021/03/14 11:06:18;;;;;;;4.87;2.20;;;;;;;8.44;48.99;97334.75;8331788;28;20738;-61
2021/03/14 11:10:24;;;;;;;7.23;1.90;;;;;;;8.33;48.72;97332.63;8329784;28;20244;-61
2021/03/14 11:14:31;;;;;;;5.90;2.63;;;;;;;9.25;46.59;97330.03;8335120;28;20215;-62
2021/03/14 11:18:33;;;;;;;5.47;1.90;;;;;;;9.96;46.04;97329.91;8342973;28;20207;-61
2021/03/14 11:22:35;;;;;;;4.43;2.20;;;;;;;10.86;42.86;97314.81;8330287;28;20211;-61
2021/03/14 11:26:37;;;;;;;4.73;2.17;;;;;;;11.90;42.98;97319.16;8329901;28;20782;-62
2021/03/14 11:30:39;;;;;;;4.63;2.13;;;;;;;10.85;43.38;97326.94;8330936;28;20213;-63
2021/03/14 11:34:42;;;;;;;7.20;2.00;;;;;;;9.93;43.30;97326.66;8344182;28;20711;-61
2021/03/14 11:38:45;;;;;;;5.93;2.07;;;;;;;9.74;44.31;97335.34;8342410;28;20262;-62
2021/03/14 11:42:48;;;;;;;5.00;1.70;;;;;;;9.58;45.28;97337.88;8355289;28;20204;-61
2021/03/14 11:46:49;;;;;;;7.47;2.00;;;;;;;9.41;47.57;97327.56;8362674;28;20540;-63
2021/03/14 11:50:52;;;;;;;6.50;1.77;;;;;;;9.56;46.85;97318.19;8362139;28;20200;-61
2021/03/14 11:54:54;;;;;;;5.07;1.80;;;;;;;10.40;43.35;97306.97;8363436;28;20311;-61
2021/03/14 11:58:57;;;;;;;5.53;1.90;;;;;;;11.15;42.22;97303.63;8354024;28;20266;-61
2021/03/14 12:02:59;;;;;;;6.50;2.10;;;;;;;10.64;41.18;97297.03;8329816;28;20220;-61
2021/03/14 12:07:02;;;;;;;4.93;1.60;;;;;;;11.69;40.74;97273.72;8331190;28;20311;-61
2021/03/14 12:11:06;;;;;;;5.60;1.80;;;;;;;11.30;38.43;97275.16;8330236;28;20228;-62
2021/03/14 12:15:10;;;;;;;4.83;1.70;;;;;;;11.49;39.01;97275.75;8330361;28;20282;-61
2021/03/14 12:19:12;;;;;;;3.23;1.67;;;;;;;11.84;38.23;97271.97;8329671;28;20219;-62
2021/03/14 12:23:14;;;;;;;4.40;1.93;;;;;;;11.00;38.90;97280.34;8329335;28;20652;-61
2021/03/14 12:27:15;;;;;;;5.83;1.97;;;;;;;10.66;40.69;97288.28;8329713;28;20569;-61
2021/03/14 12:31:18;;;;;;;5.77;2.00;;;;;;;10.39;41.51;97276.81;8329325;28;20209;-61
2021/03/14 12:35:21;;;;;;;5.73;1.73;;;;;;;10.41;41.75;97285.34;8326555;28;20324;-61
2021/03/14 12:39:23;;;;;;;3.17;1.47;;;;;;;10.23;43.35;97284.56;8329097;28;20306;-61
2021/03/14 12:43:26;;;;;;;3.07;1.63;;;;;;;9.56;46.41;97280.25;8342774;28;20295;-62
2021/03/14 12:47:29;;;;;;;5.33;1.97;;;;;;;9.47;47.28;97287.66;8335364;28;20602;-61
2021/03/14 12:51:31;;;;;;;4.83;2.00;;;;;;;10.08;47.88;97283.63;8334578;28;20200;-62
2021/03/14 12:55:33;;;;;;;4.40;2.23;;;;;;;10.85;43.86;97284.63;8334758;28;20258;-61
2021/03/14 12:59:35;;;;;;;5.70;2.33;;;;;;;11.31;42.37;97276.84;8334736;28;20220;-61
2021/03/14 13:03:38;;;;;;;6.20;2.07;;;;;;;11.46;41.38;97277.66;8335095;28;20205;-61
2021/03/14 13:07:40;;;;;;;4.57;1.90;;;;;;;12.00;42.07;97269.31;8334324;28;20231;-61
2021/03/14 13:11:42;;;;;;;4.77;1.70;;;;;;;11.81;40.57;97269.56;8336232;28;20251;-61
2021/03/14 13:15:44;;;;;;;15.13;2.70;;;;;;;12.80;50.71;97279.91;8357935;28;20213;-62
2021/03/14 13:19:47;;;;;;;6.80;1.90;;;;;;;13.31;41.29;97280.06;8332667;28;20212;-62
2021/03/14 13:24:09;;;;;;;6.23;1.60;;;;;;;14.10;38.29;97277.34;8333649;28;20222;-62
2021/03/14 13:28:12;;;;;;;3.47;1.50;;;;;;;14.86;38.60;97286.72;8332921;28;20248;-63
2021/03/14 13:32:13;;;;;;;6.80;1.73;;;;;;;14.91;37.73;97282.03;8333674;28;20526;-62
2021/03/14 13:36:16;;;;;;;5.67;1.57;;;;;;;14.07;38.23;97279.22;8332127;28;20315;-62
2021/03/14 13:40:19;;;;;;;5.00;1.83;;;;;;;13.70;35.81;97299.13;8346333;28;20220;-62
2021/03/14 13:44:21;;;;;;;4.33;1.60;;;;;;;12.72;37.66;97293.38;8358980;28;20209;-62
2021/03/14 13:48:23;;;;;;;5.70;1.83;;;;;;;11.93;38.86;97290.44;8356177;28;20240;-61
2021/03/14 13:52:26;;;;;;;4.87;1.70;;;;;;;11.30;39.66;97298.47;8333665;28;20215;-63
2021/03/14 13:56:28;;;;;;;6.27;1.50;;;;;;;11.28;39.89;97301.16;8349390;28;20223;-62
2021/03/14 14:00:30;;;;;;;3.80;2.10;;;;;;;11.23;40.39;97310.13;8340864;28;20253;-62
2021/03/14 14:04:34;;;;;;;3.10;1.50;;;;;;;11.00;40.09;97312.25;8345242;28;20230;-63
2021/03/14 14:08:37;;;;;;;4.83;1.53;;;;;;;10.65;39.43;97328.00;8347779;28;20338;-63
2021/03/14 14:12:40;;;;;;;4.50;1.70;;;;;;;10.52;40.22;97332.19;8366479;28;20577;-63
2021/03/14 14:16:41;;;;;;;4.87;1.70;;;;;;;10.12;40.78;97349.81;8366035;28;20207;-62
2021/03/14 14:20:43;;;;;;;5.57;1.60;;;;;;;10.13;41.89;97333.38;8366000;28;20711;-63
2021/03/14 14:24:46;;;;;;;5.33;1.93;;;;;;;10.07;42.93;97341.44;8342711;28;20223;-63
2021/03/14 14:28:48;;;;;;;4.27;1.80;;;;;;;10.10;43.54;97349.06;8331003;28;20603;-61
2021/03/14 14:32:50;;;;;;;4.27;1.80;;;;;;;9.91;43.65;97339.66;8328655;28;20278;-62
2021/03/14 14:36:52;;;;;;;5.07;2.00;;;;;;;9.99;43.89;97336.66;8332810;28;20248;-62
2021/03/14 14:40:55;;;;;;;5.17;2.90;;;;;;;10.11;43.61;97338.63;8332077;28;20200;-62
2021/03/14 14:44:56;;;;;;;7.13;3.27;;;;;;;10.06;44.47;97335.44;8331783;28;20204;-62
2021/03/14 14:48:59;;;;;;;6.97;2.40;;;;;;;10.22;44.66;97332.03;8332038;28;20663;-61
2021/03/14 14:53:01;;;;;;;11.70;6.60;;;;;;;10.01;43.38;97334.00;8329313;28;20225;-62
2021/03/14 14:57:04;;;;;;;5.13;2.40;;;;;;;10.03;44.24;97347.69;8330731;28;20212;-62
2021/03/14 15:01:07;;;;;;;8.37;2.20;;;;;;;9.76;43.64;97349.03;8331365;28;20215;-61
2021/03/14 15:05:10;;;;;;;4.00;1.73;;;;;;;9.72;43.84;97347.50;8331091;28;20228;-62
2021/03/14 15:09:12;;;;;;;22.60;15.43;;;;;;;9.68;43.92;97363.28;8332500;28;20613;-62
2021/03/14 15:13:15;;;;;;;14.00;6.90;;;;;;;9.73;44.16;97351.78;8331776;28;20231;-62
2021/03/14 15:17:17;;;;;;;4.73;2.77;;;;;;;9.50;43.84;97349.50;8331250;28;20216;-61
2021/03/14 15:21:19;;;;;;;10.27;3.03;;;;;;;9.32;44.01;97356.44;8331542;28;20208;-65
2021/03/14 15:25:21;;;;;;;14.90;7.60;;;;;;;9.37;44.47;97347.53;8330528;28;20240;-62
2021/03/14 15:29:24;;;;;;;6.73;3.90;;;;;;;9.54;44.51;97353.63;8331240;28;20235;-62
2021/03/14 15:33:26;;;;;;;6.40;3.37;;;;;;;9.49;44.77;97355.59;8331088;28;20200;-62
2021/03/14 15:37:27;;;;;;;5.90;2.40;;;;;;;9.38;45.33;97348.38;8332255;28;20285;-62
2021/03/14 15:41:29;;;;;;;7.17;4.07;;;;;;;9.34;45.60;97355.44;8331753;28;20208;-62
2021/03/14 15:45:32;;;;;;;5.67;3.00;;;;;;;9.12;46.26;97367.72;8330426;28;20247;-62
2021/03/14 15:49:34;;;;;;;5.20;3.27;;;;;;;9.26;45.94;97369.66;8328446;28;20232;-62
2021/03/14 15:53:36;;;;;;;6.20;3.50;;;;;;;9.11;46.66;97373.81;8331490;28;20499;-62
2021/03/14 15:57:38;;;;;;;5.47;2.40;;;;;;;9.15;46.67;97365.00;8331471;28;20213;-62
2021/03/14 16:01:40;;;;;;;3.37;1.80;;;;;;;8.96;47.72;97368.44;8330242;28;20493;-62
2021/03/14 16:05:43;;;;;;;3.37;1.63;;;;;;;9.06;47.30;97368.00;8330009;28;20689;-62
2021/03/14 16:09:44;;;;;;;6.07;2.20;;;;;;;9.03;47.56;97363.84;8330249;28;20205;-63
2021/03/14 16:13:46;;;;;;;5.10;3.87;;;;;;;9.08;48.03;97366.19;8330653;28;20553;-62
2021/03/14 16:17:49;;;;;;;3.67;2.30;;;;;;;9.12;48.13;97371.16;8334902;28;20316;-62
2021/03/14 16:21:51;;;;;;;7.50;3.53;;;;;;;9.15;48.08;97373.56;8337672;28;20255;-62
2021/03/14 16:25:53;;;;;;;5.20;1.70;;;;;;;9.16;48.70;97372.69;8337097;28;20224;-62
2021/03/14 16:29:55;;;;;;;1.70;1.20;;;;;;;8.92;48.65;97379.84;8337840;28;20217;-62
2021/03/14 16:33:57;;;;;;;1.97;1.13;;;;;;;8.72;48.93;97378.19;8337220;28;20212;-62
2021/03/14 16:37:59;;;;;;;1.97;1.20;;;;;;;8.66;49.68;97381.03;8336231;28;20203;-64
2021/03/14 16:42:01;;;;;;;1.67;1.00;;;;;;;8.58;49.21;97385.72;8336627;28;20251;-63
2021/03/14 16:46:04;;;;;;;1.17;0.70;;;;;;;8.69;49.06;97382.66;8336260;28;20228;-64
2021/03/14 16:50:08;;;;;;;2.07;1.00;;;;;;;8.79;48.92;97387.31;8337149;28;20204;-63
2021/03/14 16:54:10;;;;;;;2.63;2.00;;;;;;;8.86;49.00;97398.22;8336158;28;20223;-64
2021/03/14 16:58:12;;;;;;;1.53;1.07;;;;;;;8.82;48.99;97398.44;8335470;28;20215;-64
2021/03/14 17:02:14;;;;;;;3.70;2.40;;;;;;;8.77;49.19;97412.38;8335353;28;20209;-62
2021/03/14 17:06:17;;;;;;;1.80;1.40;;;;;;;8.57;49.75;97409.88;8336467;28;20228;-60
2021/03/14 17:10:19;;;;;;;3.43;2.03;;;;;;;8.64;49.87;97425.91;8334741;28;20235;-62
2021/03/14 17:14:21;;;;;;;1.90;1.60;;;;;;;8.67;49.96;97433.53;8334736;28;20295;-62
2021/03/14 17:18:23;;;;;;;1.80;1.50;;;;;;;8.74;50.23;97438.34;8334987;28;20216;-60
2021/03/14 17:22:26;;;;;;;3.83;2.30;;;;;;;8.66;50.23;97448.16;8335449;28;20639;-62
2021/03/14 17:26:28;;;;;;;1.27;0.80;;;;;;;8.54;50.50;97457.28;8334216;28;20269;-62
2021/03/14 17:30:29;;;;;;;2.00;1.47;;;;;;;8.51;50.53;97456.56;8335518;28;20597;-62
2021/03/14 17:34:31;;;;;;;7.27;5.37;;;;;;;8.43;50.72;97459.50;8335020;28;20235;-63
2021/03/14 17:38:34;;;;;;;2.60;2.10;;;;;;;8.37;50.34;97472.63;8336555;28;20211;-62
2021/03/14 17:42:38;;;;;;;1.30;0.97;;;;;;;8.25;50.82;97481.75;8335337;28;20216;-62
2021/03/14 17:46:39;;;;;;;2.00;1.40;;;;;;;8.22;50.73;97489.59;8334908;28;20364;-62
2021/03/14 17:50:42;;;;;;;0.87;0.70;;;;;;;8.12;51.15;97483.19;8334516;28;20300;-62
2021/03/14 17:54:44;;;;;;;1.13;0.97;;;;;;;8.27;50.64;97487.69;8334622;28;20580;-62
2021/03/14 17:58:50;;;;;;;1.63;0.90;;;;;;;8.29;50.96;97487.63;8334504;28;20196;-62
2021/03/14 18:02:55;;;;;;;1.27;0.80;;;;;;;8.32;50.76;97484.91;8334489;28;20207;-62
2021/03/14 18:06:57;;;;;;;1.23;1.00;;;;;;;8.12;51.38;97496.91;8334007;28;20235;-62
2021/03/14 18:11:00;;;;;;;1.70;1.00;;;;;;;8.32;54.94;97501.22;8333964;28;20608;-62
2021/03/14 18:15:03;;;;;;;22.53;2.77;;;;;;;10.67;60.90;97498.84;8332883;28;20208;-62
2021/03/14 18:19:05;;;;;;;1.20;0.90;;;;;;;9.37;49.25;97492.25;8333397;28;20224;-61
2021/03/14 18:23:07;;;;;;;0.93;0.80;;;;;;;8.85;50.41;97502.38;8333158;28;20208;-63
2021/03/14 18:27:09;;;;;;;2.20;1.07;;;;;;;8.73;50.53;97508.09;8332887;28;20228;-62
2021/03/14 18:31:11;;;;;;;1.50;1.20;;;;;;;8.63;51.14;97517.19;8333528;28;20296;-62
2021/03/14 18:35:14;;;;;;;1.40;1.20;;;;;;;8.43;51.34;97510.28;8333557;28;20378;-62
2021/03/14 18:39:17;;;;;;;1.80;1.40;;;;;;;8.61;51.03;97519.81;8332952;28;20208;-63
2021/03/14 18:43:20;;;;;;;3.60;2.23;;;;;;;8.61;51.22;97519.81;8333426;28;20591;-69
2021/03/14 18:47:21;;;;;;;2.23;1.60;;;;;;;8.61;52.07;97524.97;8333953;28;20240;-63
2021/03/14 18:51:24;;;;;;;2.63;1.50;;;;;;;8.07;54.05;97528.94;8332840;28;20293;-63
2021/03/14 18:55:26;;;;;;;2.70;1.40;;;;;;;8.24;54.31;97531.66;8332716;28;20602;-62
2021/03/14 18:59:28;;;;;;;2.60;1.70;;;;;;;7.91;55.59;97516.69;8332626;28;20216;-63
2021/03/14 19:03:44;;;;;;;2.40;1.77;;;;;;;7.97;56.25;97525.91;8331848;28;20228;-63
2021/03/14 19:07:46;;;;;;;2.00;1.80;;;;;;;8.19;55.71;97523.28;8331757;28;20668;-63
2021/03/14 19:11:48;;;;;;;3.50;2.20;;;;;;;8.10;56.01;97526.25;8331599;28;20556;-62
2021/03/14 19:15:51;;;;;;;2.40;2.10;;;;;;;7.93;55.92;97538.09;8332315;28;20212;-63